sensor_id;sensor_type;location;lat;lon;timestamp;P1;durP1;ratioP1;P2;durP2;ratioP2
52934;SDS011;38802;50.198;19.796;2023-06-10T00:00:07;17.90;;;14.50;;
52934;SDS011;38802;50.198;19.796;2023-06-10T00:03:02;15.70;;;14.40;;
52934;SDS011;38802;50.198;19.796;2023-06-10T00:05:31;16.60;;;15.00;;
52934;SDS011;38802;50.198;19.796;2023-06-10T00:07:59;18.60;;;15.20;;
52934;SDS011;38802;50.198;19.796;2023-06-10T00:10:28;17.70;;;16.00;;
52934;SDS011;38802;50.198;19.796;2023-06-10T00:12:56;19.70;;;15.40;;
52934;SDS011;38802;50.198;19.796;2023-06-10T00:15:24;17.30;;;15.60;;
52934;SDS011;38802;50.198;19.796;2023-06-10T00:17:52;16.90;;;15.40;;
52934;SDS011;38802;50.198;19.796;2023-06-10T00:20:20;18.30;;;16.50;;
52934;SDS011;38802;50.198;19.796;2023-06-10T00:22:53;18.20;;;16.40;;
52934;SDS011;38802;50.198;19.796;2023-06-10T00:25:21;18.30;;;16.30;;
52934;SDS011;38802;50.198;19.796;2023-06-10T00:27:50;18.60;;;16.70;;
52934;SDS011;38802;50.198;19.796;2023-06-10T00:30:18;22.50;;;17.00;;
52934;SDS011;38802;50.198;19.796;2023-06-10T00:32:46;17.80;;;16.10;;
52934;SDS011;38802;50.198;19.796;2023-06-10T00:35:14;19.50;;;17.50;;
52934;SDS011;38802;50.198;19.796;2023-06-10T00:37:42;18.00;;;15.90;;
52934;SDS011;38802;50.198;19.796;2023-06-10T00:40:10;20.50;;;15.90;;
52934;SDS011;38802;50.198;19.796;2023-06-10T00:42:39;17.40;;;15.90;;
52934;SDS011;38802;50.198;19.796;2023-06-10T00:45:07;17.20;;;15.70;;
52934;SDS011;38802;50.198;19.796;2023-06-10T00:47:36;19.00;;;16.90;;
52934;SDS011;38802;50.198;19.796;2023-06-10T00:50:05;18.70;;;17.00;;
52934;SDS011;38802;50.198;19.796;2023-06-10T00:52:34;19.70;;;15.20;;
52934;SDS011;38802;50.198;19.796;2023-06-10T00:55:03;24.50;;;17.70;;
52934;SDS011;38802;50.198;19.796;2023-06-10T00:57:32;17.70;;;15.90;;
52934;SDS011;38802;50.198;19.796;2023-06-10T01:00:00;18.10;;;16.40;;
52934;SDS011;38802;50.198;19.796;2023-06-10T01:02:28;18.40;;;16.40;;
52934;SDS011;38802;50.198;19.796;2023-06-10T01:04:59;20.40;;;18.30;;
52934;SDS011;38802;50.198;19.796;2023-06-10T01:07:34;19.80;;;18.00;;
52934;SDS011;38802;50.198;19.796;2023-06-10T01:10:07;22.10;;;17.90;;
52934;SDS011;38802;50.198;19.796;2023-06-10T01:12:41;20.60;;;18.20;;
52934;SDS011;38802;50.198;19.796;2023-06-10T01:15:17;20.10;;;18.00;;
52934;SDS011;38802;50.198;19.796;2023-06-10T01:17:56;26.00;;;19.20;;
52934;SDS011;38802;50.198;19.796;2023-06-10T01:20:37;22.00;;;19.90;;
52934;SDS011;38802;50.198;19.796;2023-06-10T01:23:09;19.70;;;17.90;;
52934;SDS011;38802;50.198;19.796;2023-06-10T01:25:39;20.10;;;18.20;;
52934;SDS011;38802;50.198;19.796;2023-06-10T01:28:30;18.60;;;17.00;;
52934;SDS011;38802;50.198;19.796;2023-06-10T01:31:18;20.90;;;18.70;;
52934;SDS011;38802;50.198;19.796;2023-06-10T01:34:02;20.80;;;18.80;;
52934;SDS011;38802;50.198;19.796;2023-06-10T01:36:35;23.20;;;18.40;;
52934;SDS011;38802;50.198;19.796;2023-06-10T01:39:04;20.80;;;18.80;;
52934;SDS011;38802;50.198;19.796;2023-06-10T01:41:35;19.80;;;17.30;;
52934;SDS011;38802;50.198;19.796;2023-06-10T01:44:04;18.50;;;16.80;;
52934;SDS011;38802;50.198;19.796;2023-06-10T01:46:32;17.30;;;15.60;;
52934;SDS011;38802;50.198;19.796;2023-06-10T01:49:01;17.00;;;15.10;;
52934;SDS011;38802;50.198;19.796;2023-06-10T01:51:29;16.90;;;15.00;;
52934;SDS011;38802;50.198;19.796;2023-06-10T01:54:00;16.80;;;15.30;;
52934;SDS011;38802;50.198;19.796;2023-06-10T01:56:28;17.50;;;15.60;;
52934;SDS011;38802;50.198;19.796;2023-06-10T01:58:56;17.90;;;16.00;;
52934;SDS011;38802;50.198;19.796;2023-06-10T02:01:27;17.40;;;15.00;;
52934;SDS011;38802;50.198;19.796;2023-06-10T02:03:56;16.20;;;13.90;;
52934;SDS011;38802;50.198;19.796;2023-06-10T02:06:25;16.60;;;15.20;;
52934;SDS011;38802;50.198;19.796;2023-06-10T02:08:53;15.90;;;14.30;;
52934;SDS011;38802;50.198;19.796;2023-06-10T02:11:21;15.70;;;14.10;;
52934;SDS011;38802;50.198;19.796;2023-06-10T02:13:49;16.00;;;14.30;;
52934;SDS011;38802;50.198;19.796;2023-06-10T02:16:18;15.40;;;13.90;;
52934;SDS011;38802;50.198;19.796;2023-06-10T02:18:49;16.10;;;14.70;;
52934;SDS011;38802;50.198;19.796;2023-06-10T02:21:17;14.00;;;12.80;;
52934;SDS011;38802;50.198;19.796;2023-06-10T02:23:45;15.90;;;14.30;;
52934;SDS011;38802;50.198;19.796;2023-06-10T02:26:13;15.10;;;13.60;;
52934;SDS011;38802;50.198;19.796;2023-06-10T02:28:44;16.10;;;14.40;;
52934;SDS011;38802;50.198;19.796;2023-06-10T02:31:13;15.40;;;14.00;;
52934;SDS011;38802;50.198;19.796;2023-06-10T02:33:42;15.70;;;14.30;;
52934;SDS011;38802;50.198;19.796;2023-06-10T02:36:10;19.00;;;14.60;;
52934;SDS011;38802;50.198;19.796;2023-06-10T02:38:41;16.90;;;15.40;;
52934;SDS011;38802;50.198;19.796;2023-06-10T02:41:10;17.30;;;15.50;;
52934;SDS011;38802;50.198;19.796;2023-06-10T02:43:38;16.80;;;15.30;;
52934;SDS011;38802;50.198;19.796;2023-06-10T02:46:07;17.00;;;15.40;;
52934;SDS011;38802;50.198;19.796;2023-06-10T02:48:42;23.40;;;16.20;;
52934;SDS011;38802;50.198;19.796;2023-06-10T02:51:18;21.80;;;15.70;;
52934;SDS011;38802;50.198;19.796;2023-06-10T02:53:48;20.20;;;16.40;;
52934;SDS011;38802;50.198;19.796;2023-06-10T02:56:16;18.10;;;16.20;;
52934;SDS011;38802;50.198;19.796;2023-06-10T02:58:46;20.10;;;15.70;;
52934;SDS011;38802;50.198;19.796;2023-06-10T03:01:15;17.70;;;15.70;;
52934;SDS011;38802;50.198;19.796;2023-06-10T03:03:53;17.50;;;15.90;;
52934;SDS011;38802;50.198;19.796;2023-06-10T03:06:21;16.40;;;14.70;;
52934;SDS011;38802;50.198;19.796;2023-06-10T03:08:53;16.60;;;15.00;;
52934;SDS011;38802;50.198;19.796;2023-06-10T03:11:22;15.30;;;13.90;;
52934;SDS011;38802;50.198;19.796;2023-06-10T03:13:51;15.50;;;14.20;;
52934;SDS011;38802;50.198;19.796;2023-06-10T03:16:21;19.30;;;14.70;;
52934;SDS011;38802;50.198;19.796;2023-06-10T03:18:50;18.20;;;14.90;;
52934;SDS011;38802;50.198;19.796;2023-06-10T03:21:20;15.30;;;13.70;;
52934;SDS011;38802;50.198;19.796;2023-06-10T03:23:48;14.90;;;13.30;;
52934;SDS011;38802;50.198;19.796;2023-06-10T03:26:17;14.20;;;12.70;;
52934;SDS011;38802;50.198;19.796;2023-06-10T03:28:45;14.60;;;13.00;;
52934;SDS011;38802;50.198;19.796;2023-06-10T03:31:14;14.00;;;12.60;;
52934;SDS011;38802;50.198;19.796;2023-06-10T03:33:44;19.20;;;13.60;;
52934;SDS011;38802;50.198;19.796;2023-06-10T03:36:13;13.00;;;11.90;;
52934;SDS011;38802;50.198;19.796;2023-06-10T03:38:41;14.90;;;12.60;;
52934;SDS011;38802;50.198;19.796;2023-06-10T03:41:09;14.90;;;12.50;;
52934;SDS011;38802;50.198;19.796;2023-06-10T03:43:40;13.10;;;11.70;;
52934;SDS011;38802;50.198;19.796;2023-06-10T03:46:08;13.20;;;10.80;;
52934;SDS011;38802;50.198;19.796;2023-06-10T03:48:38;13.40;;;11.20;;
52934;SDS011;38802;50.198;19.796;2023-06-10T03:51:07;11.60;;;10.50;;
52934;SDS011;38802;50.198;19.796;2023-06-10T03:53:35;10.60;;;9.70;;
52934;SDS011;38802;50.198;19.796;2023-06-10T03:56:04;11.00;;;9.90;;
52934;SDS011;38802;50.198;19.796;2023-06-10T03:58:32;12.90;;;9.90;;
52934;SDS011;38802;50.198;19.796;2023-06-10T04:01:00;10.90;;;9.30;;
52934;SDS011;38802;50.198;19.796;2023-06-10T04:03:32;12.00;;;8.30;;
52934;SDS011;38802;50.198;19.796;2023-06-10T04:06:01;9.50;;;8.70;;
52934;SDS011;38802;50.198;19.796;2023-06-10T04:08:30;10.60;;;9.60;;
52934;SDS011;38802;50.198;19.796;2023-06-10T04:10:59;9.90;;;8.90;;
52934;SDS011;38802;50.198;19.796;2023-06-10T04:13:28;11.80;;;9.10;;
52934;SDS011;38802;50.198;19.796;2023-06-10T04:15:58;10.20;;;9.00;;
52934;SDS011;38802;50.198;19.796;2023-06-10T04:18:26;9.90;;;9.10;;
52934;SDS011;38802;50.198;19.796;2023-06-10T04:20:56;10.70;;;9.00;;
52934;SDS011;38802;50.198;19.796;2023-06-10T04:23:24;10.10;;;9.20;;
52934;SDS011;38802;50.198;19.796;2023-06-10T04:25:54;9.50;;;8.60;;
52934;SDS011;38802;50.198;19.796;2023-06-10T04:28:22;8.80;;;8.00;;
52934;SDS011;38802;50.198;19.796;2023-06-10T04:30:50;20.90;;;9.40;;
52934;SDS011;38802;50.198;19.796;2023-06-10T04:33:18;9.00;;;8.30;;
52934;SDS011;38802;50.198;19.796;2023-06-10T04:35:47;9.50;;;8.60;;
52934;SDS011;38802;50.198;19.796;2023-06-10T04:38:15;9.10;;;8.20;;
52934;SDS011;38802;50.198;19.796;2023-06-10T04:40:44;8.70;;;7.90;;
52934;SDS011;38802;50.198;19.796;2023-06-10T04:43:13;8.30;;;7.50;;
52934;SDS011;38802;50.198;19.796;2023-06-10T04:45:41;9.30;;;7.40;;
52934;SDS011;38802;50.198;19.796;2023-06-10T04:48:12;8.70;;;7.90;;
52934;SDS011;38802;50.198;19.796;2023-06-10T04:50:41;10.40;;;7.40;;
52934;SDS011;38802;50.198;19.796;2023-06-10T04:53:10;9.30;;;8.50;;
52934;SDS011;38802;50.198;19.796;2023-06-10T04:55:39;10.50;;;7.70;;
52934;SDS011;38802;50.198;19.796;2023-06-10T04:58:08;8.20;;;7.50;;
52934;SDS011;38802;50.198;19.796;2023-06-10T05:00:36;9.00;;;7.50;;
52934;SDS011;38802;50.198;19.796;2023-06-10T05:03:04;8.20;;;7.40;;
52934;SDS011;38802;50.198;19.796;2023-06-10T05:05:32;10.90;;;7.70;;
52934;SDS011;38802;50.198;19.796;2023-06-10T05:08:00;8.40;;;7.50;;
52934;SDS011;38802;50.198;19.796;2023-06-10T05:10:28;8.00;;;7.20;;
52934;SDS011;38802;50.198;19.796;2023-06-10T05:12:59;7.30;;;6.10;;
52934;SDS011;38802;50.198;19.796;2023-06-10T05:15:27;7.70;;;6.90;;
52934;SDS011;38802;50.198;19.796;2023-06-10T05:17:56;7.30;;;6.70;;
52934;SDS011;38802;50.198;19.796;2023-06-10T05:20:26;7.90;;;7.00;;
52934;SDS011;38802;50.198;19.796;2023-06-10T05:22:54;9.20;;;7.50;;
52934;SDS011;38802;50.198;19.796;2023-06-10T05:25:23;8.20;;;7.50;;
52934;SDS011;38802;50.198;19.796;2023-06-10T05:27:53;7.80;;;7.10;;
52934;SDS011;38802;50.198;19.796;2023-06-10T05:30:21;7.00;;;5.80;;
52934;SDS011;38802;50.198;19.796;2023-06-10T05:32:49;8.40;;;6.90;;
52934;SDS011;38802;50.198;19.796;2023-06-10T05:35:19;8.70;;;6.60;;
52934;SDS011;38802;50.198;19.796;2023-06-10T05:37:47;8.20;;;7.30;;
52934;SDS011;38802;50.198;19.796;2023-06-10T05:40:15;7.30;;;6.60;;
52934;SDS011;38802;50.198;19.796;2023-06-10T05:42:44;8.20;;;6.40;;
52934;SDS011;38802;50.198;19.796;2023-06-10T05:45:12;8.10;;;6.90;;
52934;SDS011;38802;50.198;19.796;2023-06-10T05:47:40;11.20;;;7.00;;
52934;SDS011;38802;50.198;19.796;2023-06-10T05:50:08;7.30;;;6.70;;
52934;SDS011;38802;50.198;19.796;2023-06-10T05:52:37;7.00;;;6.40;;
52934;SDS011;38802;50.198;19.796;2023-06-10T05:55:08;9.50;;;6.80;;
52934;SDS011;38802;50.198;19.796;2023-06-10T05:57:37;6.80;;;6.20;;
52934;SDS011;38802;50.198;19.796;2023-06-10T06:00:05;8.40;;;7.20;;
52934;SDS011;38802;50.198;19.796;2023-06-10T06:02:39;10.30;;;7.10;;
52934;SDS011;38802;50.198;19.796;2023-06-10T06:05:07;7.60;;;6.90;;
52934;SDS011;38802;50.198;19.796;2023-06-10T06:07:36;7.50;;;6.80;;
52934;SDS011;38802;50.198;19.796;2023-06-10T06:10:04;7.60;;;6.90;;
52934;SDS011;38802;50.198;19.796;2023-06-10T06:12:32;8.10;;;7.50;;
52934;SDS011;38802;50.198;19.796;2023-06-10T06:15:01;8.30;;;6.60;;
52934;SDS011;38802;50.198;19.796;2023-06-10T06:17:30;9.00;;;6.60;;
52934;SDS011;38802;50.198;19.796;2023-06-10T06:19:59;7.20;;;6.40;;
52934;SDS011;38802;50.198;19.796;2023-06-10T06:22:27;6.60;;;6.00;;
52934;SDS011;38802;50.198;19.796;2023-06-10T06:24:55;7.50;;;6.90;;
52934;SDS011;38802;50.198;19.796;2023-06-10T06:27:23;7.80;;;6.30;;
52934;SDS011;38802;50.198;19.796;2023-06-10T06:29:51;8.40;;;6.40;;
52934;SDS011;38802;50.198;19.796;2023-06-10T06:32:20;7.30;;;6.40;;
52934;SDS011;38802;50.198;19.796;2023-06-10T06:34:50;6.70;;;6.10;;
52934;SDS011;38802;50.198;19.796;2023-06-10T06:37:23;7.30;;;6.60;;
52934;SDS011;38802;50.198;19.796;2023-06-10T06:39:57;10.10;;;7.10;;
52934;SDS011;38802;50.198;19.796;2023-06-10T06:42:29;7.30;;;6.10;;
52934;SDS011;38802;50.198;19.796;2023-06-10T06:45:11;7.10;;;6.30;;
52934;SDS011;38802;50.198;19.796;2023-06-10T06:47:39;9.90;;;7.30;;
52934;SDS011;38802;50.198;19.796;2023-06-10T06:50:08;7.00;;;6.50;;
52934;SDS011;38802;50.198;19.796;2023-06-10T06:52:36;7.60;;;6.70;;
52934;SDS011;38802;50.198;19.796;2023-06-10T06:55:04;7.60;;;6.60;;
52934;SDS011;38802;50.198;19.796;2023-06-10T06:57:33;7.90;;;6.70;;
52934;SDS011;38802;50.198;19.796;2023-06-10T07:00:02;7.30;;;6.80;;
52934;SDS011;38802;50.198;19.796;2023-06-10T07:02:30;7.30;;;6.50;;
52934;SDS011;38802;50.198;19.796;2023-06-10T07:05:01;7.20;;;6.60;;
52934;SDS011;38802;50.198;19.796;2023-06-10T07:07:29;7.10;;;6.60;;
52934;SDS011;38802;50.198;19.796;2023-06-10T07:09:57;7.20;;;6.60;;
52934;SDS011;38802;50.198;19.796;2023-06-10T07:12:25;8.10;;;6.70;;
52934;SDS011;38802;50.198;19.796;2023-06-10T07:14:53;7.30;;;5.80;;
52934;SDS011;38802;50.198;19.796;2023-06-10T07:17:21;6.20;;;5.60;;
52934;SDS011;38802;50.198;19.796;2023-06-10T07:19:49;10.30;;;6.20;;
52934;SDS011;38802;50.198;19.796;2023-06-10T07:22:19;8.30;;;6.80;;
52934;SDS011;38802;50.198;19.796;2023-06-10T07:24:47;6.40;;;5.80;;
52934;SDS011;38802;50.198;19.796;2023-06-10T07:27:15;7.60;;;6.90;;
52934;SDS011;38802;50.198;19.796;2023-06-10T07:29:43;9.30;;;6.40;;
52934;SDS011;38802;50.198;19.796;2023-06-10T07:32:11;7.30;;;5.80;;
52934;SDS011;38802;50.198;19.796;2023-06-10T07:34:42;9.00;;;6.10;;
52934;SDS011;38802;50.198;19.796;2023-06-10T07:37:10;6.10;;;5.50;;
52934;SDS011;38802;50.198;19.796;2023-06-10T07:39:38;5.50;;;5.00;;
52934;SDS011;38802;50.198;19.796;2023-06-10T07:42:07;6.20;;;5.60;;
52934;SDS011;38802;50.198;19.796;2023-06-10T07:44:35;6.50;;;5.80;;
52934;SDS011;38802;50.198;19.796;2023-06-10T07:47:03;5.80;;;5.30;;
52934;SDS011;38802;50.198;19.796;2023-06-10T07:49:31;5.00;;;4.60;;
52934;SDS011;38802;50.198;19.796;2023-06-10T07:51:59;7.80;;;5.60;;
52934;SDS011;38802;50.198;19.796;2023-06-10T07:54:30;9.20;;;5.60;;
52934;SDS011;38802;50.198;19.796;2023-06-10T07:56:58;6.70;;;6.10;;
52934;SDS011;38802;50.198;19.796;2023-06-10T07:59:26;6.00;;;5.50;;
52934;SDS011;38802;50.198;19.796;2023-06-10T08:01:55;9.40;;;5.00;;
52934;SDS011;38802;50.198;19.796;2023-06-10T08:04:23;6.80;;;5.40;;
52934;SDS011;38802;50.198;19.796;2023-06-10T08:06:52;5.70;;;4.90;;
52934;SDS011;38802;50.198;19.796;2023-06-10T08:09:20;6.10;;;5.30;;
52934;SDS011;38802;50.198;19.796;2023-06-10T08:11:50;5.60;;;5.00;;
52934;SDS011;38802;50.198;19.796;2023-06-10T08:14:19;5.50;;;5.10;;
52934;SDS011;38802;50.198;19.796;2023-06-10T08:16:47;5.70;;;5.10;;
52934;SDS011;38802;50.198;19.796;2023-06-10T08:19:34;5.30;;;4.90;;
52934;SDS011;38802;50.198;19.796;2023-06-10T08:22:02;5.90;;;5.40;;
52934;SDS011;38802;50.198;19.796;2023-06-10T08:24:31;5.30;;;4.60;;
52934;SDS011;38802;50.198;19.796;2023-06-10T08:26:59;5.20;;;4.80;;
52934;SDS011;38802;50.198;19.796;2023-06-10T08:29:27;8.80;;;5.40;;
52934;SDS011;38802;50.198;19.796;2023-06-10T08:31:55;6.10;;;4.90;;
52934;SDS011;38802;50.198;19.796;2023-06-10T08:34:23;5.40;;;5.00;;
52934;SDS011;38802;50.198;19.796;2023-06-10T08:36:54;5.20;;;4.70;;
52934;SDS011;38802;50.198;19.796;2023-06-10T08:39:23;6.10;;;5.40;;
52934;SDS011;38802;50.198;19.796;2023-06-10T08:41:59;5.20;;;4.70;;
52934;SDS011;38802;50.198;19.796;2023-06-10T08:44:32;6.40;;;5.40;;
52934;SDS011;38802;50.198;19.796;2023-06-10T08:47:00;5.70;;;5.10;;
52934;SDS011;38802;50.198;19.796;2023-06-10T08:49:44;5.50;;;5.00;;
52934;SDS011;38802;50.198;19.796;2023-06-10T08:52:17;7.50;;;5.30;;
52934;SDS011;38802;50.198;19.796;2023-06-10T08:54:48;4.60;;;4.20;;
52934;SDS011;38802;50.198;19.796;2023-06-10T08:57:22;5.90;;;4.80;;
52934;SDS011;38802;50.198;19.796;2023-06-10T08:59:55;6.00;;;4.90;;
52934;SDS011;38802;50.198;19.796;2023-06-10T09:02:24;5.80;;;5.30;;
52934;SDS011;38802;50.198;19.796;2023-06-10T09:04:53;5.50;;;5.10;;
52934;SDS011;38802;50.198;19.796;2023-06-10T09:07:27;6.50;;;5.00;;
52934;SDS011;38802;50.198;19.796;2023-06-10T09:09:59;5.50;;;5.00;;
52934;SDS011;38802;50.198;19.796;2023-06-10T09:12:48;5.50;;;4.90;;
52934;SDS011;38802;50.198;19.796;2023-06-10T09:15:17;5.60;;;4.60;;
52934;SDS011;38802;50.198;19.796;2023-06-10T09:17:45;6.30;;;4.80;;
52934;SDS011;38802;50.198;19.796;2023-06-10T09:20:13;5.10;;;4.70;;
52934;SDS011;38802;50.198;19.796;2023-06-10T09:22:44;4.10;;;3.80;;
52934;SDS011;38802;50.198;19.796;2023-06-10T09:25:13;5.70;;;4.70;;
52934;SDS011;38802;50.198;19.796;2023-06-10T09:27:46;4.80;;;4.40;;
52934;SDS011;38802;50.198;19.796;2023-06-10T09:30:28;5.40;;;4.50;;
52934;SDS011;38802;50.198;19.796;2023-06-10T09:33:13;4.80;;;4.40;;
52934;SDS011;38802;50.198;19.796;2023-06-10T09:35:47;4.90;;;4.40;;
52934;SDS011;38802;50.198;19.796;2023-06-10T09:38:21;6.10;;;5.50;;
52934;SDS011;38802;50.198;19.796;2023-06-10T09:43:22;6.40;;;4.20;;
52934;SDS011;38802;50.198;19.796;2023-06-10T09:45:50;5.50;;;4.30;;
52934;SDS011;38802;50.198;19.796;2023-06-10T09:48:25;5.10;;;4.60;;
52934;SDS011;38802;50.198;19.796;2023-06-10T09:50:53;4.80;;;4.20;;
52934;SDS011;38802;50.198;19.796;2023-06-10T09:53:22;4.80;;;4.40;;
52934;SDS011;38802;50.198;19.796;2023-06-10T09:55:50;3.70;;;3.40;;
52934;SDS011;38802;50.198;19.796;2023-06-10T09:58:33;4.20;;;3.90;;
52934;SDS011;38802;50.198;19.796;2023-06-10T10:01:09;5.80;;;4.00;;
52934;SDS011;38802;50.198;19.796;2023-06-10T10:03:45;4.20;;;3.90;;
52934;SDS011;38802;50.198;19.796;2023-06-10T10:06:15;4.40;;;3.90;;
52934;SDS011;38802;50.198;19.796;2023-06-10T10:08:45;4.40;;;3.90;;
52934;SDS011;38802;50.198;19.796;2023-06-10T10:11:19;4.20;;;3.80;;
52934;SDS011;38802;50.198;19.796;2023-06-10T10:13:54;6.20;;;3.80;;
52934;SDS011;38802;50.198;19.796;2023-06-10T10:16:43;3.70;;;3.30;;
52934;SDS011;38802;50.198;19.796;2023-06-10T10:19:21;6.70;;;3.90;;
52934;SDS011;38802;50.198;19.796;2023-06-10T10:22:07;4.50;;;4.10;;
52934;SDS011;38802;50.198;19.796;2023-06-10T10:24:38;3.50;;;3.20;;
52934;SDS011;38802;50.198;19.796;2023-06-10T10:27:17;3.80;;;3.40;;
52934;SDS011;38802;50.198;19.796;2023-06-10T10:29:48;4.50;;;2.90;;
52934;SDS011;38802;50.198;19.796;2023-06-10T10:32:26;4.70;;;3.70;;
52934;SDS011;38802;50.198;19.796;2023-06-10T10:35:07;4.20;;;3.20;;
52934;SDS011;38802;50.198;19.796;2023-06-10T10:37:37;6.70;;;3.50;;
52934;SDS011;38802;50.198;19.796;2023-06-10T10:40:07;5.10;;;3.60;;
52934;SDS011;38802;50.198;19.796;2023-06-10T10:42:36;4.40;;;3.40;;
52934;SDS011;38802;50.198;19.796;2023-06-10T10:45:07;4.00;;;2.90;;
52934;SDS011;38802;50.198;19.796;2023-06-10T10:47:37;3.40;;;3.10;;
52934;SDS011;38802;50.198;19.796;2023-06-10T10:50:17;3.10;;;2.90;;
52934;SDS011;38802;50.198;19.796;2023-06-10T10:52:54;3.10;;;2.80;;
52934;SDS011;38802;50.198;19.796;2023-06-10T10:55:23;3.50;;;3.20;;
52934;SDS011;38802;50.198;19.796;2023-06-10T11:00:32;3.50;;;3.20;;
52934;SDS011;38802;50.198;19.796;2023-06-10T11:03:06;3.50;;;2.80;;
52934;SDS011;38802;50.198;19.796;2023-06-10T11:05:48;3.60;;;3.10;;
52934;SDS011;38802;50.198;19.796;2023-06-10T11:11:01;4.30;;;3.00;;
52934;SDS011;38802;50.198;19.796;2023-06-10T11:16:30;4.20;;;3.40;;
52934;SDS011;38802;50.198;19.796;2023-06-10T11:19:07;3.70;;;3.40;;
52934;SDS011;38802;50.198;19.796;2023-06-10T11:24:29;4.40;;;2.70;;
52934;SDS011;38802;50.198;19.796;2023-06-10T11:32:26;3.00;;;2.80;;
52934;SDS011;38802;50.198;19.796;2023-06-10T11:35:04;3.80;;;2.90;;
52934;SDS011;38802;50.198;19.796;2023-06-10T11:37:33;2.90;;;2.60;;
52934;SDS011;38802;50.198;19.796;2023-06-10T11:40:01;3.40;;;3.10;;
52934;SDS011;38802;50.198;19.796;2023-06-10T11:42:30;4.00;;;2.90;;
52934;SDS011;38802;50.198;19.796;2023-06-10T11:44:58;3.20;;;2.90;;
52934;SDS011;38802;50.198;19.796;2023-06-10T11:47:28;4.00;;;2.90;;
52934;SDS011;38802;50.198;19.796;2023-06-10T11:49:56;2.90;;;2.60;;
52934;SDS011;38802;50.198;19.796;2023-06-10T11:52:29;2.90;;;2.70;;
52934;SDS011;38802;50.198;19.796;2023-06-10T11:55:05;3.50;;;2.90;;
52934;SDS011;38802;50.198;19.796;2023-06-10T11:57:37;4.70;;;2.80;;
52934;SDS011;38802;50.198;19.796;2023-06-10T12:00:06;5.00;;;3.10;;
52934;SDS011;38802;50.198;19.796;2023-06-10T12:02:39;4.20;;;2.60;;
52934;SDS011;38802;50.198;19.796;2023-06-10T12:05:11;3.00;;;2.80;;
52934;SDS011;38802;50.198;19.796;2023-06-10T12:07:40;3.30;;;2.50;;
52934;SDS011;38802;50.198;19.796;2023-06-10T12:10:08;4.20;;;2.80;;
52934;SDS011;38802;50.198;19.796;2023-06-10T12:12:54;3.90;;;3.20;;
52934;SDS011;38802;50.198;19.796;2023-06-10T12:15:25;2.90;;;2.70;;
52934;SDS011;38802;50.198;19.796;2023-06-10T12:17:53;3.60;;;3.30;;
52934;SDS011;38802;50.198;19.796;2023-06-10T12:20:25;4.70;;;3.30;;
52934;SDS011;38802;50.198;19.796;2023-06-10T12:22:55;3.70;;;3.40;;
52934;SDS011;38802;50.198;19.796;2023-06-10T12:25:54;5.20;;;4.50;;
52934;SDS011;38802;50.198;19.796;2023-06-10T12:28:23;5.30;;;3.90;;
52934;SDS011;38802;50.198;19.796;2023-06-10T12:31:08;3.70;;;3.40;;
52934;SDS011;38802;50.198;19.796;2023-06-10T12:33:36;4.00;;;3.50;;
52934;SDS011;38802;50.198;19.796;2023-06-10T12:36:04;3.90;;;3.60;;
52934;SDS011;38802;50.198;19.796;2023-06-10T12:38:43;7.40;;;3.30;;
52934;SDS011;38802;50.198;19.796;2023-06-10T12:41:12;3.30;;;3.00;;
52934;SDS011;38802;50.198;19.796;2023-06-10T12:43:45;4.70;;;3.40;;
52934;SDS011;38802;50.198;19.796;2023-06-10T12:46:14;5.10;;;3.00;;
52934;SDS011;38802;50.198;19.796;2023-06-10T12:48:49;4.60;;;3.20;;
52934;SDS011;38802;50.198;19.796;2023-06-10T12:51:21;2.70;;;2.50;;
52934;SDS011;38802;50.198;19.796;2023-06-10T12:53:49;3.20;;;2.90;;
52934;SDS011;38802;50.198;19.796;2023-06-10T12:56:17;3.20;;;2.90;;
52934;SDS011;38802;50.198;19.796;2023-06-10T12:58:45;2.90;;;2.70;;
52934;SDS011;38802;50.198;19.796;2023-06-10T13:01:14;2.90;;;2.60;;
52934;SDS011;38802;50.198;19.796;2023-06-10T13:03:42;4.80;;;3.00;;
52934;SDS011;38802;50.198;19.796;2023-06-10T13:06:10;2.60;;;2.40;;
52934;SDS011;38802;50.198;19.796;2023-06-10T13:08:39;2.90;;;2.70;;
52934;SDS011;38802;50.198;19.796;2023-06-10T13:11:07;3.90;;;3.30;;
52934;SDS011;38802;50.198;19.796;2023-06-10T13:13:36;3.10;;;2.90;;
52934;SDS011;38802;50.198;19.796;2023-06-10T13:16:05;3.00;;;2.70;;
52934;SDS011;38802;50.198;19.796;2023-06-10T13:18:33;5.40;;;3.00;;
52934;SDS011;38802;50.198;19.796;2023-06-10T13:21:05;3.40;;;3.10;;
52934;SDS011;38802;50.198;19.796;2023-06-10T13:23:33;4.70;;;3.30;;
52934;SDS011;38802;50.198;19.796;2023-06-10T13:26:01;3.00;;;2.80;;
52934;SDS011;38802;50.198;19.796;2023-06-10T13:28:30;2.80;;;2.60;;
52934;SDS011;38802;50.198;19.796;2023-06-10T13:31:03;3.90;;;2.80;;
52934;SDS011;38802;50.198;19.796;2023-06-10T13:33:31;3.90;;;3.20;;
52934;SDS011;38802;50.198;19.796;2023-06-10T13:36:00;4.00;;;2.90;;
52934;SDS011;38802;50.198;19.796;2023-06-10T13:38:30;6.10;;;3.80;;
52934;SDS011;38802;50.198;19.796;2023-06-10T13:40:58;5.80;;;3.50;;
52934;SDS011;38802;50.198;19.796;2023-06-10T13:43:28;4.80;;;3.10;;
52934;SDS011;38802;50.198;19.796;2023-06-10T13:45:57;3.90;;;3.50;;
52934;SDS011;38802;50.198;19.796;2023-06-10T13:48:25;3.90;;;3.60;;
52934;SDS011;38802;50.198;19.796;2023-06-10T13:50:54;3.70;;;3.40;;
52934;SDS011;38802;50.198;19.796;2023-06-10T13:53:23;4.00;;;3.70;;
52934;SDS011;38802;50.198;19.796;2023-06-10T13:55:51;4.20;;;3.60;;
52934;SDS011;38802;50.198;19.796;2023-06-10T13:58:19;3.50;;;3.30;;
52934;SDS011;38802;50.198;19.796;2023-06-10T14:00:47;3.80;;;3.50;;
52934;SDS011;38802;50.198;19.796;2023-06-10T14:03:15;3.70;;;3.40;;
52934;SDS011;38802;50.198;19.796;2023-06-10T14:05:44;3.80;;;3.50;;
52934;SDS011;38802;50.198;19.796;2023-06-10T14:08:12;3.70;;;3.40;;
52934;SDS011;38802;50.198;19.796;2023-06-10T14:10:41;4.40;;;3.30;;
52934;SDS011;38802;50.198;19.796;2023-06-10T14:13:09;4.00;;;3.50;;
52934;SDS011;38802;50.198;19.796;2023-06-10T14:15:37;3.60;;;3.30;;
52934;SDS011;38802;50.198;19.796;2023-06-10T14:18:05;3.20;;;2.90;;
52934;SDS011;38802;50.198;19.796;2023-06-10T14:20:35;5.50;;;2.90;;
52934;SDS011;38802;50.198;19.796;2023-06-10T14:23:03;3.40;;;2.60;;
52934;SDS011;38802;50.198;19.796;2023-06-10T14:25:32;3.70;;;2.70;;
52934;SDS011;38802;50.198;19.796;2023-06-10T14:28:00;2.60;;;2.30;;
52934;SDS011;38802;50.198;19.796;2023-06-10T14:30:28;2.50;;;2.30;;
52934;SDS011;38802;50.198;19.796;2023-06-10T14:32:56;4.30;;;2.90;;
52934;SDS011;38802;50.198;19.796;2023-06-10T14:35:24;2.80;;;2.20;;
52934;SDS011;38802;50.198;19.796;2023-06-10T14:37:58;2.60;;;2.00;;
52934;SDS011;38802;50.198;19.796;2023-06-10T14:40:26;2.50;;;2.30;;
52934;SDS011;38802;50.198;19.796;2023-06-10T14:42:56;3.90;;;2.60;;
52934;SDS011;38802;50.198;19.796;2023-06-10T14:45:24;2.80;;;2.60;;
52934;SDS011;38802;50.198;19.796;2023-06-10T14:47:53;2.50;;;2.30;;
52934;SDS011;38802;50.198;19.796;2023-06-10T14:50:21;3.20;;;2.50;;
52934;SDS011;38802;50.198;19.796;2023-06-10T14:52:49;2.70;;;2.40;;
52934;SDS011;38802;50.198;19.796;2023-06-10T14:55:17;3.30;;;2.00;;
52934;SDS011;38802;50.198;19.796;2023-06-10T14:57:46;3.80;;;2.20;;
52934;SDS011;38802;50.198;19.796;2023-06-10T15:00:14;4.30;;;2.40;;
52934;SDS011;38802;50.198;19.796;2023-06-10T15:02:44;2.30;;;2.10;;